sensor_id;sensor_type;location;lat;lon;timestamp;temperature;humidity
17284;DHT22;8760;52.248;20.952;2023-07-31T00:00:18;18.90;99.90
17284;DHT22;8760;52.248;20.952;2023-07-31T00:02:45;18.90;99.90
17284;DHT22;8760;52.248;20.952;2023-07-31T00:05:12;18.80;99.90
17284;DHT22;8760;52.248;20.952;2023-07-31T00:07:40;18.80;99.90
17284;DHT22;8760;52.248;20.952;2023-07-31T00:10:08;18.80;99.90
17284;DHT22;8760;52.248;20.952;2023-07-31T00:12:35;18.80;99.90
17284;DHT22;8760;52.248;20.952;2023-07-31T00:15:02;18.80;99.90
17284;DHT22;8760;52.248;20.952;2023-07-31T00:17:29;18.80;99.90
17284;DHT22;8760;52.248;20.952;2023-07-31T00:19:56;18.70;99.90
17284;DHT22;8760;52.248;20.952;2023-07-31T00:22:22;18.80;99.90
17284;DHT22;8760;52.248;20.952;2023-07-31T00:24:51;18.70;99.90
17284;DHT22;8760;52.248;20.952;2023-07-31T00:27:18;18.70;99.90
17284;DHT22;8760;52.248;20.952;2023-07-31T00:29:45;18.70;99.90
17284;DHT22;8760;52.248;20.952;2023-07-31T00:32:12;18.70;99.90
17284;DHT22;8760;52.248;20.952;2023-07-31T00:34:39;18.70;99.90
17284;DHT22;8760;52.248;20.952;2023-07-31T00:37:06;18.60;99.90
17284;DHT22;8760;52.248;20.952;2023-07-31T00:39:33;18.60;99.90
17284;DHT22;8760;52.248;20.952;2023-07-31T00:42:02;18.60;99.90
17284;DHT22;8760;52.248;20.952;2023-07-31T00:44:29;18.60;99.90
17284;DHT22;8760;52.248;20.952;2023-07-31T00:46:56;18.50;99.90
17284;DHT22;8760;52.248;20.952;2023-07-31T00:49:25;18.50;99.90
17284;DHT22;8760;52.248;20.952;2023-07-31T00:51:52;18.50;99.90
17284;DHT22;8760;52.248;20.952;2023-07-31T00:54:19;18.50;99.90
17284;DHT22;8760;52.248;20.952;2023-07-31T00:56:46;18.40;99.90
17284;DHT22;8760;52.248;20.952;2023-07-31T00:59:16;18.40;99.90
17284;DHT22;8760;52.248;20.952;2023-07-31T01:01:44;18.30;99.90
17284;DHT22;8760;52.248;20.952;2023-07-31T01:04:12;18.30;99.90
17284;DHT22;8760;52.248;20.952;2023-07-31T01:06:45;18.30;99.90
17284;DHT22;8760;52.248;20.952;2023-07-31T01:09:22;18.20;99.90
17284;DHT22;8760;52.248;20.952;2023-07-31T01:11:56;18.20;99.90
17284;DHT22;8760;52.248;20.952;2023-07-31T01:14:24;18.20;99.90
17284;DHT22;8760;52.248;20.952;2023-07-31T01:16:51;18.10;99.90
17284;DHT22;8760;52.248;20.952;2023-07-31T01:19:22;18.10;99.90
17284;DHT22;8760;52.248;20.952;2023-07-31T01:22:04;18.10;99.90
17284;DHT22;8760;52.248;20.952;2023-07-31T01:24:43;18.10;99.90
17284;DHT22;8760;52.248;20.952;2023-07-31T01:27:17;18.10;99.90
17284;DHT22;8760;52.248;20.952;2023-07-31T01:29:52;18.10;99.90
17284;DHT22;8760;52.248;20.952;2023-07-31T01:32:22;18.10;99.90
17284;DHT22;8760;52.248;20.952;2023-07-31T01:34:49;18.10;99.90
17284;DHT22;8760;52.248;20.952;2023-07-31T01:37:17;18.10;99.90
17284;DHT22;8760;52.248;20.952;2023-07-31T01:39:44;18.10;99.90
17284;DHT22;8760;52.248;20.952;2023-07-31T01:42:10;18.10;99.90
17284;DHT22;8760;52.248;20.952;2023-07-31T01:44:39;18.10;99.90
17284;DHT22;8760;52.248;20.952;2023-07-31T01:47:06;18.00;99.90
17284;DHT22;8760;52.248;20.952;2023-07-31T01:49:32;18.00;99.90
17284;DHT22;8760;52.248;20.952;2023-07-31T01:51:59;18.00;99.90
17284;DHT22;8760;52.248;20.952;2023-07-31T01:54:26;17.90;99.90
17284;DHT22;8760;52.248;20.952;2023-07-31T01:56:53;17.90;99.90
17284;DHT22;8760;52.248;20.952;2023-07-31T01:59:20;17.90;99.90
17284;DHT22;8760;52.248;20.952;2023-07-31T02:01:48;17.90;99.90
17284;DHT22;8760;52.248;20.952;2023-07-31T02:04:15;17.80;99.90
17284;DHT22;8760;52.248;20.952;2023-07-31T02:06:42;17.80;99.90
17284;DHT22;8760;52.248;20.952;2023-07-31T02:09:09;17.80;99.90
17284;DHT22;8760;52.248;20.952;2023-07-31T02:11:36;17.70;99.90
17284;DHT22;8760;52.248;20.952;2023-07-31T02:14:03;17.70;99.90
17284;DHT22;8760;52.248;20.952;2023-07-31T02:16:30;17.70;99.90
17284;DHT22;8760;52.248;20.952;2023-07-31T02:18:58;17.70;99.90
17284;DHT22;8760;52.248;20.952;2023-07-31T02:21:25;17.60;99.90
17284;DHT22;8760;52.248;20.952;2023-07-31T02:23:52;17.60;99.90
17284;DHT22;8760;52.248;20.952;2023-07-31T02:26:19;17.60;99.90
17284;DHT22;8760;52.248;20.952;2023-07-31T02:28:46;17.60;99.90
17284;DHT22;8760;52.248;20.952;2023-07-31T02:31:13;17.60;99.90
17284;DHT22;8760;52.248;20.952;2023-07-31T02:33:40;17.60;99.90
17284;DHT22;8760;52.248;20.952;2023-07-31T02:36:08;17.50;99.90
17284;DHT22;8760;52.248;20.952;2023-07-31T02:38:35;17.50;99.90
17284;DHT22;8760;52.248;20.952;2023-07-31T02:41:02;17.50;99.90
17284;DHT22;8760;52.248;20.952;2023-07-31T02:43:28;17.50;99.90
17284;DHT22;8760;52.248;20.952;2023-07-31T02:45:55;17.50;99.90
17284;DHT22;8760;52.248;20.952;2023-07-31T02:48:22;17.60;99.90
17284;DHT22;8760;52.248;20.952;2023-07-31T02:50:49;17.60;99.90
17284;DHT22;8760;52.248;20.952;2023-07-31T02:53:17;17.60;99.90
17284;DHT22;8760;52.248;20.952;2023-07-31T02:55:44;17.60;99.90
17284;DHT22;8760;52.248;20.952;2023-07-31T02:58:11;17.50;99.90
17284;DHT22;8760;52.248;20.952;2023-07-31T03:00:42;17.50;99.90
17284;DHT22;8760;52.248;20.952;2023-07-31T03:03:09;17.50;99.90
17284;DHT22;8760;52.248;20.952;2023-07-31T03:05:36;17.50;99.90
17284;DHT22;8760;52.248;20.952;2023-07-31T03:08:03;17.50;99.90
17284;DHT22;8760;52.248;20.952;2023-07-31T03:10:31;17.50;99.90
17284;DHT22;8760;52.248;20.952;2023-07-31T03:12:58;17.50;99.90
17284;DHT22;8760;52.248;20.952;2023-07-31T03:15:25;17.50;99.90
17284;DHT22;8760;52.248;20.952;2023-07-31T03:17:52;17.50;99.90
17284;DHT22;8760;52.248;20.952;2023-07-31T03:20:18;17.50;99.90
17284;DHT22;8760;52.248;20.952;2023-07-31T03:22:45;17.50;99.90
17284;DHT22;8760;52.248;20.952;2023-07-31T03:25:12;17.50;99.90
17284;DHT22;8760;52.248;20.952;2023-07-31T03:27:41;17.60;99.90
17284;DHT22;8760;52.248;20.952;2023-07-31T03:30:08;17.60;99.90
17284;DHT22;8760;52.248;20.952;2023-07-31T03:32:35;17.60;99.90
17284;DHT22;8760;52.248;20.952;2023-07-31T03:35:02;17.60;99.90
17284;DHT22;8760;52.248;20.952;2023-07-31T03:37:31;17.50;99.90
17284;DHT22;8760;52.248;20.952;2023-07-31T03:39:57;17.70;99.90
17284;DHT22;8760;52.248;20.952;2023-07-31T03:42:24;17.60;99.90
17284;DHT22;8760;52.248;20.952;2023-07-31T03:44:52;17.70;99.90
17284;DHT22;8760;52.248;20.952;2023-07-31T03:47:19;17.70;99.90
17284;DHT22;8760;52.248;20.952;2023-07-31T03:49:46;17.70;99.90
17284;DHT22;8760;52.248;20.952;2023-07-31T03:52:13;17.70;99.90
17284;DHT22;8760;52.248;20.952;2023-07-31T03:54:40;17.80;99.90
17284;DHT22;8760;52.248;20.952;2023-07-31T03:57:07;17.70;99.90
17284;DHT22;8760;52.248;20.952;2023-07-31T03:59:33;17.70;99.90
17284;DHT22;8760;52.248;20.952;2023-07-31T04:02:02;17.70;99.90
17284;DHT22;8760;52.248;20.952;2023-07-31T04:04:29;17.80;99.90
17284;DHT22;8760;52.248;20.952;2023-07-31T04:06:56;17.70;99.90
17284;DHT22;8760;52.248;20.952;2023-07-31T04:09:23;17.70;99.90
17284;DHT22;8760;52.248;20.952;2023-07-31T04:11:49;17.80;99.90
17284;DHT22;8760;52.248;20.952;2023-07-31T04:14:17;17.80;99.90
17284;DHT22;8760;52.248;20.952;2023-07-31T04:16:43;17.80;99.90
17284;DHT22;8760;52.248;20.952;2023-07-31T04:19:12;17.70;99.90
17284;DHT22;8760;52.248;20.952;2023-07-31T04:21:42;17.80;99.90
17284;DHT22;8760;52.248;20.952;2023-07-31T04:24:08;17.80;99.90
17284;DHT22;8760;52.248;20.952;2023-07-31T04:26:35;17.80;99.90
17284;DHT22;8760;52.248;20.952;2023-07-31T04:29:02;17.70;99.90
17284;DHT22;8760;52.248;20.952;2023-07-31T04:31:29;17.70;99.90
17284;DHT22;8760;52.248;20.952;2023-07-31T04:33:56;17.70;99.90
17284;DHT22;8760;52.248;20.952;2023-07-31T04:36:24;17.70;99.90
17284;DHT22;8760;52.248;20.952;2023-07-31T04:38:51;17.80;99.90
17284;DHT22;8760;52.248;20.952;2023-07-31T04:41:18;17.70;99.90
17284;DHT22;8760;52.248;20.952;2023-07-31T04:43:45;17.80;99.90
17284;DHT22;8760;52.248;20.952;2023-07-31T04:46:12;17.80;99.90
17284;DHT22;8760;52.248;20.952;2023-07-31T04:48:39;17.80;99.90
17284;DHT22;8760;52.248;20.952;2023-07-31T04:51:06;17.80;99.90
17284;DHT22;8760;52.248;20.952;2023-07-31T04:53:34;17.90;99.90
17284;DHT22;8760;52.248;20.952;2023-07-31T04:56:01;17.90;99.90
17284;DHT22;8760;52.248;20.952;2023-07-31T04:58:28;17.90;99.90
17284;DHT22;8760;52.248;20.952;2023-07-31T05:00:55;17.90;99.90
17284;DHT22;8760;52.248;20.952;2023-07-31T05:03:21;17.90;99.90
17284;DHT22;8760;52.248;20.952;2023-07-31T05:05:49;17.90;99.90
17284;DHT22;8760;52.248;20.952;2023-07-31T05:08:16;17.90;99.90
17284;DHT22;8760;52.248;20.952;2023-07-31T05:10:45;18.00;99.90
17284;DHT22;8760;52.248;20.952;2023-07-31T05:13:12;18.00;99.90
17284;DHT22;8760;52.248;20.952;2023-07-31T05:15:39;18.10;99.90
17284;DHT22;8760;52.248;20.952;2023-07-31T05:18:07;18.10;99.90
17284;DHT22;8760;52.248;20.952;2023-07-31T05:20:34;18.10;99.90
17284;DHT22;8760;52.248;20.952;2023-07-31T05:23:01;18.10;99.90
17284;DHT22;8760;52.248;20.952;2023-07-31T05:25:27;18.10;99.90
17284;DHT22;8760;52.248;20.952;2023-07-31T05:27:56;18.10;99.90
17284;DHT22;8760;52.248;20.952;2023-07-31T05:30:23;18.10;99.90
17284;DHT22;8760;52.248;20.952;2023-07-31T05:32:49;18.20;99.90
17284;DHT22;8760;52.248;20.952;2023-07-31T05:35:16;18.20;99.90
17284;DHT22;8760;52.248;20.952;2023-07-31T05:37:43;18.20;99.90
17284;DHT22;8760;52.248;20.952;2023-07-31T05:40:11;18.30;99.90
17284;DHT22;8760;52.248;20.952;2023-07-31T05:42:38;18.30;99.90
17284;DHT22;8760;52.248;20.952;2023-07-31T05:45:07;18.20;99.90
17284;DHT22;8760;52.248;20.952;2023-07-31T05:47:34;18.10;99.90
17284;DHT22;8760;52.248;20.952;2023-07-31T05:50:01;18.10;99.90
17284;DHT22;8760;52.248;20.952;2023-07-31T05:52:28;18.10;99.90
17284;DHT22;8760;52.248;20.952;2023-07-31T05:54:55;18.10;99.90
17284;DHT22;8760;52.248;20.952;2023-07-31T05:57:22;18.10;99.90
17284;DHT22;8760;52.248;20.952;2023-07-31T05:59:49;18.20;99.90
17284;DHT22;8760;52.248;20.952;2023-07-31T06:02:18;18.20;99.90
17284;DHT22;8760;52.248;20.952;2023-07-31T06:04:44;18.20;99.90
17284;DHT22;8760;52.248;20.952;2023-07-31T06:07:11;18.20;99.90
17284;DHT22;8760;52.248;20.952;2023-07-31T06:09:38;18.30;99.90
17284;DHT22;8760;52.248;20.952;2023-07-31T06:12:06;18.30;99.90
17284;DHT22;8760;52.248;20.952;2023-07-31T06:14:33;18.30;99.90
17284;DHT22;8760;52.248;20.952;2023-07-31T06:17:00;18.40;99.90
17284;DHT22;8760;52.248;20.952;2023-07-31T06:19:28;18.40;99.90
17284;DHT22;8760;52.248;20.952;2023-07-31T06:21:55;18.50;99.90
17284;DHT22;8760;52.248;20.952;2023-07-31T06:24:22;18.50;99.90
17284;DHT22;8760;52.248;20.952;2023-07-31T06:26:49;18.50;99.90
17284;DHT22;8760;52.248;20.952;2023-07-31T06:29:16;18.40;99.90
17284;DHT22;8760;52.248;20.952;2023-07-31T06:31:43;18.40;99.90
17284;DHT22;8760;52.248;20.952;2023-07-31T06:34:10;18.40;99.90
17284;DHT22;8760;52.248;20.952;2023-07-31T06:36:38;18.40;99.90
17284;DHT22;8760;52.248;20.952;2023-07-31T06:39:05;18.40;99.90
17284;DHT22;8760;52.248;20.952;2023-07-31T06:41:32;18.40;99.90
17284;DHT22;8760;52.248;20.952;2023-07-31T06:43:59;18.30;99.90
17284;DHT22;8760;52.248;20.952;2023-07-31T06:46:25;18.40;99.90
17284;DHT22;8760;52.248;20.952;2023-07-31T06:48:52;18.30;99.90
17284;DHT22;8760;52.248;20.952;2023-07-31T06:51:19;18.30;99.90
17284;DHT22;8760;52.248;20.952;2023-07-31T06:53:47;18.40;99.90
17284;DHT22;8760;52.248;20.952;2023-07-31T06:56:14;18.40;99.90
17284;DHT22;8760;52.248;20.952;2023-07-31T06:58:41;18.50;99.90
17284;DHT22;8760;52.248;20.952;2023-07-31T07:01:08;18.40;99.90
17284;DHT22;8760;52.248;20.952;2023-07-31T07:03:35;18.50;99.90
17284;DHT22;8760;52.248;20.952;2023-07-31T07:06:02;18.40;99.90
17284;DHT22;8760;52.248;20.952;2023-07-31T07:08:29;18.40;99.90
17284;DHT22;8760;52.248;20.952;2023-07-31T07:10:57;18.50;99.90
17284;DHT22;8760;52.248;20.952;2023-07-31T07:13:24;18.60;99.90
17284;DHT22;8760;52.248;20.952;2023-07-31T07:15:51;18.70;99.90
17284;DHT22;8760;52.248;20.952;2023-07-31T07:18:18;18.90;99.90
17284;DHT22;8760;52.248;20.952;2023-07-31T07:20:47;19.10;99.90
17284;DHT22;8760;52.248;20.952;2023-07-31T07:23:14;19.40;99.90
17284;DHT22;8760;52.248;20.952;2023-07-31T07:25:41;19.50;99.90
17284;DHT22;8760;52.248;20.952;2023-07-31T07:28:10;19.60;99.90
17284;DHT22;8760;52.248;20.952;2023-07-31T07:30:37;20.10;99.90
17284;DHT22;8760;52.248;20.952;2023-07-31T07:33:04;20.60;99.90
17284;DHT22;8760;52.248;20.952;2023-07-31T07:35:32;20.90;99.90
17284;DHT22;8760;52.248;20.952;2023-07-31T07:37:59;21.20;99.90
17284;DHT22;8760;52.248;20.952;2023-07-31T07:40:26;21.20;99.90
17284;DHT22;8760;52.248;20.952;2023-07-31T07:42:53;21.20;99.90
17284;DHT22;8760;52.248;20.952;2023-07-31T07:45:21;21.10;99.90
17284;DHT22;8760;52.248;20.952;2023-07-31T07:47:48;21.10;99.90
17284;DHT22;8760;52.248;20.952;2023-07-31T07:50:15;21.10;99.90
17284;DHT22;8760;52.248;20.952;2023-07-31T07:52:42;21.30;99.90
17284;DHT22;8760;52.248;20.952;2023-07-31T07:55:09;21.50;99.90
17284;DHT22;8760;52.248;20.952;2023-07-31T07:57:36;21.60;99.90
17284;DHT22;8760;52.248;20.952;2023-07-31T08:00:04;21.90;99.90
17284;DHT22;8760;52.248;20.952;2023-07-31T08:02:32;22.00;99.90
17284;DHT22;8760;52.248;20.952;2023-07-31T08:04:59;22.20;99.90
17284;DHT22;8760;52.248;20.952;2023-07-31T08:07:26;22.20;99.90
17284;DHT22;8760;52.248;20.952;2023-07-31T08:09:54;22.20;99.90
17284;DHT22;8760;52.248;20.952;2023-07-31T08:12:21;22.20;99.90
17284;DHT22;8760;52.248;20.952;2023-07-31T08:14:48;22.40;99.90
17284;DHT22;8760;52.248;20.952;2023-07-31T08:17:15;22.60;99.90
17284;DHT22;8760;52.248;20.952;2023-07-31T08:19:43;23.10;99.90
17284;DHT22;8760;52.248;20.952;2023-07-31T08:22:11;23.60;99.90
17284;DHT22;8760;52.248;20.952;2023-07-31T08:24:38;23.90;99.90
17284;DHT22;8760;52.248;20.952;2023-07-31T08:27:06;24.40;99.90
17284;DHT22;8760;52.248;20.952;2023-07-31T08:29:33;24.90;99.90
17284;DHT22;8760;52.248;20.952;2023-07-31T08:32:00;25.20;99.90
17284;DHT22;8760;52.248;20.952;2023-07-31T08:34:26;25.20;99.90
17284;DHT22;8760;52.248;20.952;2023-07-31T08:36:55;25.30;99.90
17284;DHT22;8760;52.248;20.952;2023-07-31T08:39:21;25.10;99.90
17284;DHT22;8760;52.248;20.952;2023-07-31T08:41:48;24.80;99.90
17284;DHT22;8760;52.248;20.952;2023-07-31T08:44:15;24.70;99.90
17284;DHT22;8760;52.248;20.952;2023-07-31T08:46:44;25.10;99.90
17284;DHT22;8760;52.248;20.952;2023-07-31T08:49:12;25.40;99.90
17284;DHT22;8760;52.248;20.952;2023-07-31T08:51:41;25.70;99.90
17284;DHT22;8760;52.248;20.952;2023-07-31T08:54:09;26.20;99.90
17284;DHT22;8760;52.248;20.952;2023-07-31T08:56:36;26.50;99.90
17284;DHT22;8760;52.248;20.952;2023-07-31T08:59:04;26.50;99.90
17284;DHT22;8760;52.248;20.952;2023-07-31T09:01:35;26.30;99.90
17284;DHT22;8760;52.248;20.952;2023-07-31T09:04:04;26.30;99.90
17284;DHT22;8760;52.248;20.952;2023-07-31T09:06:32;26.50;99.90
17284;DHT22;8760;52.248;20.952;2023-07-31T09:09:00;26.50;99.90
17284;DHT22;8760;52.248;20.952;2023-07-31T09:11:28;26.20;99.90
17284;DHT22;8760;52.248;20.952;2023-07-31T09:13:57;26.20;99.90
17284;DHT22;8760;52.248;20.952;2023-07-31T09:16:28;26.60;99.90
17284;DHT22;8760;52.248;20.952;2023-07-31T09:18:57;27.00;99.90
17284;DHT22;8760;52.248;20.952;2023-07-31T09:21:27;27.10;99.90
17284;DHT22;8760;52.248;20.952;2023-07-31T09:23:54;27.10;99.90
17284;DHT22;8760;52.248;20.952;2023-07-31T09:26:33;26.50;99.90
17284;DHT22;8760;52.248;20.952;2023-07-31T09:29:01;26.40;99.90
17284;DHT22;8760;52.248;20.952;2023-07-31T09:31:38;26.10;99.90
17284;DHT22;8760;52.248;20.952;2023-07-31T09:34:05;25.90;99.90
17284;DHT22;8760;52.248;20.952;2023-07-31T09:36:32;26.10;99.90
17284;DHT22;8760;52.248;20.952;2023-07-31T09:39:04;26.20;99.90
17284;DHT22;8760;52.248;20.952;2023-07-31T09:41:36;26.50;99.90
17284;DHT22;8760;52.248;20.952;2023-07-31T09:44:04;26.60;99.90
17284;DHT22;8760;52.248;20.952;2023-07-31T09:46:31;26.40;99.90
17284;DHT22;8760;52.248;20.952;2023-07-31T09:49:08;25.90;99.90
17284;DHT22;8760;52.248;20.952;2023-07-31T09:51:36;25.30;99.90
17284;DHT22;8760;52.248;20.952;2023-07-31T09:54:11;25.30;99.90
17284;DHT22;8760;52.248;20.952;2023-07-31T09:56:42;25.40;99.90
17284;DHT22;8760;52.248;20.952;2023-07-31T09:59:11;25.30;99.90
17284;DHT22;8760;52.248;20.952;2023-07-31T10:01:40;25.20;99.90
17284;DHT22;8760;52.248;20.952;2023-07-31T10:04:08;25.20;99.90
17284;DHT22;8760;52.248;20.952;2023-07-31T10:06:36;25.40;99.90
17284;DHT22;8760;52.248;20.952;2023-07-31T10:09:06;25.90;99.90
17284;DHT22;8760;52.248;20.952;2023-07-31T10:11:37;26.20;99.90
17284;DHT22;8760;52.248;20.952;2023-07-31T10:14:07;26.40;99.90
17284;DHT22;8760;52.248;20.952;2023-07-31T10:16:37;27.10;99.90
17284;DHT22;8760;52.248;20.952;2023-07-31T10:19:05;27.60;99.90
17284;DHT22;8760;52.248;20.952;2023-07-31T10:21:33;27.60;99.90
17284;DHT22;8760;52.248;20.952;2023-07-31T10:24:03;27.90;99.90
17284;DHT22;8760;52.248;20.952;2023-07-31T10:26:31;28.20;99.90
17284;DHT22;8760;52.248;20.952;2023-07-31T10:28:59;27.90;99.90
17284;DHT22;8760;52.248;20.952;2023-07-31T10:31:28;27.30;99.90
17284;DHT22;8760;52.248;20.952;2023-07-31T10:33:57;26.80;99.90
17284;DHT22;8760;52.248;20.952;2023-07-31T10:36:24;26.90;99.90
17284;DHT22;8760;52.248;20.952;2023-07-31T10:38:52;27.00;99.90
17284;DHT22;8760;52.248;20.952;2023-07-31T10:41:28;27.10;99.90
17284;DHT22;8760;52.248;20.952;2023-07-31T10:43:57;27.10;99.90
17284;DHT22;8760;52.248;20.952;2023-07-31T10:46:24;27.40;99.90
17284;DHT22;8760;52.248;20.952;2023-07-31T10:48:59;27.40;99.90
17284;DHT22;8760;52.248;20.952;2023-07-31T10:51:32;27.60;99.90
17284;DHT22;8760;52.248;20.952;2023-07-31T10:54:11;27.50;99.90
17284;DHT22;8760;52.248;20.952;2023-07-31T10:56:44;27.70;99.90
17284;DHT22;8760;52.248;20.952;2023-07-31T10:59:11;27.70;99.90
17284;DHT22;8760;52.248;20.952;2023-07-31T11:01:52;27.70;99.90
17284;DHT22;8760;52.248;20.952;2023-07-31T11:04:24;27.10;99.90
17284;DHT22;8760;52.248;20.952;2023-07-31T11:06:58;26.70;99.90
17284;DHT22;8760;52.248;20.952;2023-07-31T11:09:28;26.20;99.90
17284;DHT22;8760;52.248;20.952;2023-07-31T11:11:56;26.30;99.90
17284;DHT22;8760;52.248;20.952;2023-07-31T11:14:23;26.40;99.90
17284;DHT22;8760;52.248;20.952;2023-07-31T11:16:50;26.50;99.90
17284;DHT22;8760;52.248;20.952;2023-07-31T11:19:23;26.40;99.90
17284;DHT22;8760;52.248;20.952;2023-07-31T11:21:51;26.10;99.90
17284;DHT22;8760;52.248;20.952;2023-07-31T11:24:18;26.10;99.90
17284;DHT22;8760;52.248;20.952;2023-07-31T11:26:58;26.20;99.90
17284;DHT22;8760;52.248;20.952;2023-07-31T11:29:27;26.20;99.90
17284;DHT22;8760;52.248;20.952;2023-07-31T11:31:54;26.10;99.90
17284;DHT22;8760;52.248;20.952;2023-07-31T11:34:23;25.80;99.90
17284;DHT22;8760;52.248;20.952;2023-07-31T11:36:53;25.20;99.90
17284;DHT22;8760;52.248;20.952;2023-07-31T11:39:21;25.00;99.90
17284;DHT22;8760;52.248;20.952;2023-07-31T11:41:48;25.00;99.90
17284;DHT22;8760;52.248;20.952;2023-07-31T11:44:15;25.00;99.90
17284;DHT22;8760;52.248;20.952;2023-07-31T11:46:42;24.80;99.90
17284;DHT22;8760;52.248;20.952;2023-07-31T11:49:09;24.80;99.90
17284;DHT22;8760;52.248;20.952;2023-07-31T11:51:38;24.70;99.90
17284;DHT22;8760;52.248;20.952;2023-07-31T11:54:05;24.70;99.90
17284;DHT22;8760;52.248;20.952;2023-07-31T11:56:32;24.60;99.90
17284;DHT22;8760;52.248;20.952;2023-07-31T11:59:01;24.60;99.90
17284;DHT22;8760;52.248;20.952;2023-07-31T12:01:31;24.50;99.90
17284;DHT22;8760;52.248;20.952;2023-07-31T12:03:58;24.40;99.90
17284;DHT22;8760;52.248;20.952;2023-07-31T12:06:32;24.40;99.90
17284;DHT22;8760;52.248;20.952;2023-07-31T12:09:03;24.40;99.90
17284;DHT22;8760;52.248;20.952;2023-07-31T12:11:30;24.40;99.90
17284;DHT22;8760;52.248;20.952;2023-07-31T12:13:57;24.20;99.90
17284;DHT22;8760;52.248;20.952;2023-07-31T12:16:26;24.20;99.90
17284;DHT22;8760;52.248;20.952;2023-07-31T12:18:54;24.20;99.90
17284;DHT22;8760;52.248;20.952;2023-07-31T12:21:21;24.30;99.90
17284;DHT22;8760;52.248;20.952;2023-07-31T12:23:48;24.30;99.90
17284;DHT22;8760;52.248;20.952;2023-07-31T12:26:17;24.20;99.90
17284;DHT22;8760;52.248;20.952;2023-07-31T12:28:45;24.30;99.90
17284;DHT22;8760;52.248;20.952;2023-07-31T12:31:13;24.20;99.90
17284;DHT22;8760;52.248;20.952;2023-07-31T12:33:41;24.20;99.90
17284;DHT22;8760;52.248;20.952;2023-07-31T12:36:10;24.20;99.90
17284;DHT22;8760;52.248;20.952;2023-07-31T12:38:36;24.30;99.90
17284;DHT22;8760;52.248;20.952;2023-07-31T12:41:03;24.50;99.90
17284;DHT22;8760;52.248;20.952;2023-07-31T12:43:33;24.60;99.90
17284;DHT22;8760;52.248;20.952;2023-07-31T12:46:00;24.70;99.90
17284;DHT22;8760;52.248;20.952;2023-07-31T12:48:27;24.70;99.90
17284;DHT22;8760;52.248;20.952;2023-07-31T12:50:54;24.80;99.90
17284;DHT22;8760;52.248;20.952;2023-07-31T12:53:21;25.00;99.90
17284;DHT22;8760;52.248;20.952;2023-07-31T12:55:48;25.20;99.90
17284;DHT22;8760;52.248;20.952;2023-07-31T12:58:15;25.30;99.90
17284;DHT22;8760;52.248;20.952;2023-07-31T13:00:44;25.50;99.90
17284;DHT22;8760;52.248;20.952;2023-07-31T13:03:10;25.60;99.90
17284;DHT22;8760;52.248;20.952;2023-07-31T13:05:37;25.60;99.90
17284;DHT22;8760;52.248;20.952;2023-07-31T13:08:04;25.60;99.90
17284;DHT22;8760;52.248;20.952;2023-07-31T13:10:31;25.40;99.90
17284;DHT22;8760;52.248;20.952;2023-07-31T13:12:58;25.40;99.90
17284;DHT22;8760;52.248;20.952;2023-07-31T13:15:25;25.50;99.90
17284;DHT22;8760;52.248;20.952;2023-07-31T13:17:53;25.60;99.90
17284;DHT22;8760;52.248;20.952;2023-07-31T13:20:20;25.80;99.90
17284;DHT22;8760;52.248;20.952;2023-07-31T13:22:47;25.80;99.90
17284;DHT22;8760;52.248;20.952;2023-07-31T13:25:14;25.90;99.90
17284;DHT22;8760;52.248;20.952;2023-07-31T13:27:41;25.80;99.90
17284;DHT22;8760;52.248;20.952;2023-07-31T13:30:08;25.80;99.90
17284;DHT22;8760;52.248;20.952;2023-07-31T13:32:35;25.60;99.90
17284;DHT22;8760;52.248;20.952;2023-07-31T13:35:06;25.40;99.90
17284;DHT22;8760;52.248;20.952;2023-07-31T13:37:33;25.40;99.90
17284;DHT22;8760;52.248;20.952;2023-07-31T13:40:00;25.40;99.90
17284;DHT22;8760;52.248;20.952;2023-07-31T13:42:27;25.40;99.90
17284;DHT22;8760;52.248;20.952;2023-07-31T13:44:56;25.40;99.90
17284;DHT22;8760;52.248;20.952;2023-07-31T13:47:23;25.40;99.90
17284;DHT22;8760;52.248;20.952;2023-07-31T13:49:50;25.50;99.90
17284;DHT22;8760;52.248;20.952;2023-07-31T13:52:18;25.60;99.90
17284;DHT22;8760;52.248;20.952;2023-07-31T13:54:45;25.70;99.90
17284;DHT22;8760;52.248;20.952;2023-07-31T13:57:12;25.20;99.90
17284;DHT22;8760;52.248;20.952;2023-07-31T13:59:39;24.80;99.90
17284;DHT22;8760;52.248;20.952;2023-07-31T14:02:06;24.70;99.90
17284;DHT22;8760;52.248;20.952;2023-07-31T14:04:33;24.70;99.90
17284;DHT22;8760;52.248;20.952;2023-07-31T14:07:00;24.70;99.90
17284;DHT22;8760;52.248;20.952;2023-07-31T14:09:28;24.60;99.90
17284;DHT22;8760;52.248;20.952;2023-07-31T14:11:55;24.50;99.90
17284;DHT22;8760;52.248;20.952;2023-07-31T14:14:22;24.50;99.90
17284;DHT22;8760;52.248;20.952;2023-07-31T14:16:49;24.50;99.90
17284;DHT22;8760;52.248;20.952;2023-07-31T14:19:16;24.60;99.90
17284;DHT22;8760;52.248;20.952;2023-07-31T14:21:43;24.70;99.90
17284;DHT22;8760;52.248;20.952;2023-07-31T14:24:09;24.70;99.90
17284;DHT22;8760;52.248;20.952;2023-07-31T14:26:38;24.80;99.90
17284;DHT22;8760;52.248;20.952;2023-07-31T14:29:05;25.00;99.90
17284;DHT22;8760;52.248;20.952;2023-07-31T14:31:31;25.10;99.90
17284;DHT22;8760;52.248;20.952;2023-07-31T14:33:58;25.40;99.90
17284;DHT22;8760;52.248;20.952;2023-07-31T14:36:25;25.40;99.90
17284;DHT22;8760;52.248;20.952;2023-07-31T14:38:52;25.50;99.90
17284;DHT22;8760;52.248;20.952;2023-07-31T14:41:19;25.60;99.90
17284;DHT22;8760;52.248;20.952;2023-07-31T14:43:47;25.70;99.90
17284;DHT22;8760;52.248;20.952;2023-07-31T14:46:14;25.70;99.90
17284;DHT22;8760;52.248;20.952;2023-07-31T14:48:41;25.80;99.90
17284;DHT22;8760;52.248;20.952;2023-07-31T14:51:07;25.80;99.90
17284;DHT22;8760;52.248;20.952;2023-07-31T14:53:34;25.70;99.90
17284;DHT22;8760;52.248;20.952;2023-07-31T14:56:01;25.50;99.90
17284;DHT22;8760;52.248;20.952;2023-07-31T14:58:28;25.40;99.90
17284;DHT22;8760;52.248;20.952;2023-07-31T15:00:56;25.30;99.90
17284;DHT22;8760;52.248;20.952;2023-07-31T15:03:23;25.20;99.90
17284;DHT22;8760;52.248;20.952;2023-07-31T15:05:51;25.10;99.90
17284;DHT22;8760;52.248;20.952;2023-07-31T15:08:18;25.00;99.90
17284;DHT22;8760;52.248;20.952;2023-07-31T15:10:45;25.00;99.90
17284;DHT22;8760;52.248;20.952;2023-07-31T15:13:12;24.90;99.90
17284;DHT22;8760;52.248;20.952;2023-07-31T15:15:39;24.80;99.90
17284;DHT22;8760;52.248;20.952;2023-07-31T15:18:08;24.80;99.90
17284;DHT22;8760;52.248;20.952;2023-07-31T15:20:34;24.80;99.90
17284;DHT22;8760;52.248;20.952;2023-07-31T15:23:01;24.80;99.90
17284;DHT22;8760;52.248;20.952;2023-07-31T15:25:28;24.80;99.90
17284;DHT22;8760;52.248;20.952;2023-07-31T15:27:55;24.80;99.90
17284;DHT22;8760;52.248;20.952;2023-07-31T15:30:22;24.80;99.90
17284;DHT22;8760;52.248;20.952;2023-07-31T15:32:50;24.70;99.90